createdAt,value
2023-04-07T00:00:06.750Z,14.38
2023-04-07T00:02:16.779Z,11.35
2023-04-07T00:04:21.958Z,11.13
2023-04-07T00:06:27.952Z,14.13
2023-04-07T00:08:35.505Z,11.48
2023-04-07T00:10:40.620Z,11.80
2023-04-07T00:12:45.524Z,14.00
2023-04-07T00:14:50.258Z,12.68
2023-04-07T00:16:55.061Z,11.57
2023-04-07T00:18:59.841Z,11.18
2023-04-07T00:21:04.780Z,10.68
2023-04-07T00:23:09.558Z,11.90
2023-04-07T00:25:16.950Z,14.35
2023-04-07T00:27:23.397Z,13.65
2023-04-07T00:29:28.491Z,14.43
2023-04-07T00:31:33.313Z,12.43
2023-04-07T00:33:38.348Z,11.85
2023-04-07T00:35:43.204Z,12.95
2023-04-07T00:37:48.078Z,12.45
2023-04-07T00:39:53.517Z,12.27
2023-04-07T00:42:01.487Z,11.50
2023-04-07T00:44:06.417Z,12.30
2023-04-07T00:46:11.347Z,12.60
2023-04-07T00:48:16.256Z,12.50
2023-04-07T00:50:21.689Z,13.55
2023-04-07T00:52:30.300Z,13.32
2023-04-07T00:54:35.477Z,11.90
2023-04-07T00:56:41.872Z,12.57
2023-04-07T00:58:50.610Z,13.93
2023-04-07T01:01:07.807Z,12.70
2023-04-07T01:03:17.420Z,11.88
2023-04-07T01:05:28.417Z,12.25
2023-04-07T01:07:47.122Z,10.48
2023-04-07T01:10:00.827Z,11.80
2023-04-07T01:12:15.754Z,10.98
2023-04-07T01:14:24.191Z,12.05
2023-04-07T01:16:45.374Z,12.98
2023-04-07T01:18:53.905Z,11.73
2023-04-07T01:21:06.077Z,11.68
2023-04-07T01:23:11.996Z,11.85
2023-04-07T01:25:31.507Z,10.55
2023-04-07T01:27:41.290Z,12.68
2023-04-07T01:29:51.044Z,10.68
2023-04-07T01:31:58.691Z,10.60
2023-04-07T01:34:06.395Z,11.98
2023-04-07T01:36:12.782Z,10.60
2023-04-07T01:38:19.292Z,10.85
2023-04-07T01:40:25.073Z,11.23
2023-04-07T01:42:30.887Z,12.45
2023-04-07T01:44:36.551Z,12.52
2023-04-07T01:46:44.062Z,13.15
2023-04-07T01:48:50.146Z,13.25
2023-04-07T01:50:55.738Z,11.50
2023-04-07T01:53:00.788Z,13.77
2023-04-07T01:55:05.997Z,10.57
2023-04-07T01:57:14.749Z,14.75
2023-04-07T01:59:20.311Z,12.23
2023-04-07T02:01:26.349Z,13.70
2023-04-07T02:03:38.850Z,15.15
2023-04-07T02:05:43.965Z,14.00
2023-04-07T02:07:55.142Z,13.90
2023-04-07T02:10:02.831Z,11.65
2023-04-07T02:12:10.953Z,13.27
2023-04-07T02:14:21.589Z,11.77
2023-04-07T02:16:40.704Z,12.23
2023-04-07T02:18:50.182Z,11.52
2023-04-07T02:20:53.254Z,15.05
2023-04-07T02:22:58.353Z,15.00
2023-04-07T02:25:03.421Z,14.07
2023-04-07T02:27:08.212Z,13.90
2023-04-07T02:29:13.074Z,13.30
2023-04-07T02:31:17.879Z,11.32
2023-04-07T02:33:22.733Z,12.20
2023-04-07T02:35:30.522Z,13.23
2023-04-07T02:37:35.671Z,13.07
2023-04-07T02:39:40.729Z,12.65
2023-04-07T02:41:45.743Z,14.45
2023-04-07T02:43:50.468Z,13.18
2023-04-07T02:45:55.712Z,12.65
2023-04-07T02:48:01.868Z,11.75
2023-04-07T02:50:07.255Z,13.13
2023-04-07T02:52:16.443Z,14.23
2023-04-07T02:54:21.330Z,11.93
2023-04-07T02:56:26.278Z,11.80
2023-04-07T02:58:31.083Z,13.70
2023-04-07T03:00:36.996Z,11.50
2023-04-07T03:02:48.987Z,12.68
2023-04-07T03:04:55.884Z,12.43
2023-04-07T03:07:05.202Z,11.18
2023-04-07T03:09:13.792Z,12.63
2023-04-07T03:11:18.670Z,11.32
2023-04-07T03:13:24.416Z,13.32
2023-04-07T03:15:29.321Z,12.95
2023-04-07T03:17:34.417Z,11.60
2023-04-07T03:19:39.408Z,11.18
2023-04-07T03:21:44.485Z,10.50
2023-04-07T03:23:49.604Z,12.13
2023-04-07T03:25:57.837Z,10.65
2023-04-07T03:28:06.862Z,13.93
2023-04-07T03:30:15.558Z,13.27
2023-04-07T03:32:22.595Z,11.27
2023-04-07T03:34:27.496Z,9.93
2023-04-07T03:36:35.603Z,10.77
2023-04-07T03:38:42.881Z,9.90
2023-04-07T03:40:47.706Z,10.85
2023-04-07T03:42:55.433Z,10.63
2023-04-07T03:45:00.351Z,11.20
2023-04-07T03:47:05.765Z,9.85
2023-04-07T03:49:12.431Z,8.95
2023-04-07T03:51:17.578Z,8.63
2023-04-07T03:53:25.096Z,9.85
2023-04-07T03:55:31.358Z,9.50
2023-04-07T03:57:42.765Z,9.10
2023-04-07T03:59:51.470Z,9.93
2023-04-07T04:01:57.226Z,11.30
2023-04-07T04:04:03.213Z,9.23
2023-04-07T04:06:09.520Z,9.52
2023-04-07T04:08:14.835Z,13.27
2023-04-07T04:10:20.734Z,9.60
2023-04-07T04:12:28.899Z,11.30
2023-04-07T04:14:42.656Z,12.38
2023-04-07T04:16:51.586Z,11.32
2023-04-07T04:19:04.501Z,9.10
2023-04-07T04:21:10.107Z,8.40
2023-04-07T04:23:24.953Z,9.50
2023-04-07T04:27:38.162Z,8.43
2023-04-07T04:29:50.399Z,8.27
2023-04-07T04:32:01.932Z,8.00
2023-04-07T04:34:08.056Z,10.60
2023-04-07T04:36:13.591Z,9.68
2023-04-07T04:38:19.778Z,10.82
2023-04-07T04:40:31.685Z,8.95
2023-04-07T04:42:37.225Z,10.80
2023-04-07T04:44:42.689Z,9.25
2023-04-07T04:46:47.938Z,8.88
2023-04-07T04:48:55.612Z,8.98
2023-04-07T04:51:02.382Z,8.35
2023-04-07T04:53:08.404Z,7.85
2023-04-07T04:55:15.134Z,10.00
2023-04-07T04:57:21.659Z,8.13
2023-04-07T04:59:27.256Z,11.13
2023-04-07T05:01:39.156Z,8.40
2023-04-07T05:03:47.872Z,10.50
2023-04-07T05:06:01.460Z,11.48
2023-04-07T05:08:06.466Z,10.50
2023-04-07T05:10:14.745Z,11.13
2023-04-07T05:12:25.844Z,10.38
2023-04-07T05:14:36.292Z,12.93
2023-04-07T05:16:44.521Z,7.78
2023-04-07T05:18:55.192Z,9.43
2023-04-07T05:21:04.786Z,9.52
2023-04-07T05:23:12.184Z,8.45
2023-04-07T05:25:18.035Z,8.73
2023-04-07T05:27:24.880Z,8.63
2023-04-07T05:29:33.513Z,10.25
2023-04-07T05:31:43.137Z,11.70
2023-04-07T05:33:52.063Z,8.80
2023-04-07T05:36:00.219Z,8.20
2023-04-07T05:38:07.957Z,8.95
2023-04-07T05:40:14.761Z,8.35
2023-04-07T05:42:19.805Z,8.65
2023-04-07T05:44:28.033Z,7.70
2023-04-07T05:46:33.658Z,7.10
2023-04-07T05:48:38.576Z,7.40
2023-04-07T05:50:43.459Z,9.23
2023-04-07T05:52:51.761Z,9.88
2023-04-07T05:55:05.335Z,8.30
2023-04-07T05:57:10.833Z,9.50
2023-04-07T05:59:21.571Z,9.93
2023-04-07T06:01:28.042Z,7.45
2023-04-07T06:03:33.139Z,8.57
2023-04-07T06:05:49.402Z,8.50
2023-04-07T06:07:57.509Z,7.60
2023-04-07T06:10:08.556Z,8.55
2023-04-07T06:12:13.750Z,7.82
2023-04-07T06:14:20.950Z,7.18
2023-04-07T06:16:25.728Z,7.75
2023-04-07T06:18:30.658Z,7.15
2023-04-07T06:20:35.969Z,8.82
2023-04-07T06:22:41.276Z,5.88
2023-04-07T06:24:46.455Z,6.28
2023-04-07T06:26:55.640Z,7.18
2023-04-07T06:29:01.909Z,10.38
2023-04-07T06:31:07.401Z,7.05
2023-04-07T06:33:13.585Z,8.10
2023-04-07T06:35:19.061Z,7.35
2023-04-07T06:37:24.774Z,5.93
2023-04-07T06:39:30.967Z,5.80
2023-04-07T06:41:35.792Z,6.13
2023-04-07T06:43:43.687Z,7.15
2023-04-07T06:45:48.817Z,8.48
2023-04-07T06:47:53.765Z,5.60
2023-04-07T06:49:58.568Z,6.18
2023-04-07T06:52:03.489Z,6.35
2023-04-07T06:54:13.252Z,7.45
2023-04-07T06:56:18.182Z,6.65
2023-04-07T06:58:23.241Z,5.82
2023-04-07T07:00:31.302Z,8.48
2023-04-07T07:02:36.281Z,6.75
2023-04-07T07:04:41.201Z,7.43
2023-04-07T07:06:46.138Z,6.43
2023-04-07T07:08:51.166Z,8.02
2023-04-07T07:10:56.365Z,7.20
2023-04-07T07:13:01.205Z,7.00
2023-04-07T07:15:06.458Z,7.63
2023-04-07T07:17:13.958Z,7.47
2023-04-07T07:19:18.923Z,9.18
2023-04-07T07:21:23.995Z,7.78
2023-04-07T07:23:28.830Z,7.68
2023-04-07T07:25:33.655Z,8.18
2023-04-07T07:27:38.430Z,7.20
2023-04-07T07:29:43.942Z,7.30
2023-04-07T07:31:48.940Z,8.75
2023-04-07T07:33:56.431Z,6.45
2023-04-07T07:36:01.383Z,9.43
2023-04-07T07:38:06.307Z,7.82
2023-04-07T07:40:11.582Z,6.78
2023-04-07T07:42:16.528Z,6.88
2023-04-07T07:44:22.973Z,7.40
2023-04-07T07:46:27.817Z,7.65
2023-04-07T07:48:32.596Z,8.40
2023-04-07T07:50:40.213Z,7.85
2023-04-07T07:52:45.002Z,6.82
2023-04-07T07:54:49.825Z,7.18
2023-04-07T07:56:54.660Z,7.25
2023-04-07T07:58:59.486Z,7.05
2023-04-07T08:01:04.618Z,6.35
2023-04-07T08:03:09.943Z,7.22
2023-04-07T08:05:15.126Z,7.65
2023-04-07T08:07:22.676Z,7.00
2023-04-07T08:09:28.107Z,9.80
2023-04-07T08:11:32.935Z,7.85
2023-04-07T08:13:37.749Z,7.28
2023-04-07T08:15:43.019Z,7.35
2023-04-07T08:17:47.842Z,6.32
2023-04-07T08:19:52.700Z,6.45
2023-04-07T08:21:57.531Z,9.00
2023-04-07T08:24:05.150Z,6.65
2023-04-07T08:26:10.243Z,7.20
2023-04-07T08:28:15.194Z,7.45
2023-04-07T08:30:21.282Z,7.28
2023-04-07T08:32:26.378Z,7.32
2023-04-07T08:34:31.312Z,6.97
2023-04-07T08:36:36.290Z,6.85
2023-04-07T08:38:41.519Z,5.78
2023-04-07T08:40:49.130Z,6.82
2023-04-07T08:42:55.143Z,7.05
2023-04-07T08:45:01.516Z,8.38
2023-04-07T08:47:11.793Z,7.68
2023-04-07T08:49:20.095Z,7.10
2023-04-07T08:51:32.003Z,7.25
2023-04-07T08:53:41.105Z,8.25
2023-04-07T08:55:48.581Z,6.53
2023-04-07T08:57:55.155Z,8.00
2023-04-07T09:00:04.714Z,7.28
2023-04-07T09:02:09.865Z,7.05
2023-04-07T09:04:15.368Z,9.35
2023-04-07T09:06:21.129Z,6.93
2023-04-07T09:08:25.911Z,6.30
2023-04-07T09:10:31.021Z,7.25
2023-04-07T09:12:38.823Z,7.60
2023-04-07T09:14:43.907Z,7.45
2023-04-07T09:16:49.540Z,7.10
2023-04-07T09:18:56.073Z,7.63
2023-04-07T09:21:02.714Z,6.35
2023-04-07T09:23:07.738Z,6.32
2023-04-07T09:25:18.407Z,7.93
2023-04-07T09:27:23.429Z,8.38
2023-04-07T09:29:31.136Z,9.18
2023-04-07T09:31:48.809Z,6.20
2023-04-07T09:33:53.653Z,6.38
2023-04-07T09:35:58.606Z,7.47
2023-04-07T09:38:08.589Z,7.00
2023-04-07T09:40:14.102Z,8.23
2023-04-07T09:42:19.055Z,7.45
2023-04-07T09:44:24.700Z,6.70
2023-04-07T09:46:35.465Z,6.53
2023-04-07T09:48:41.454Z,8.15
2023-04-07T09:50:49.735Z,12.68
2023-04-07T09:52:55.520Z,9.45
2023-04-07T09:55:01.500Z,7.43
2023-04-07T09:57:07.990Z,7.55
2023-04-07T09:59:13.593Z,6.45
2023-04-07T10:01:19.752Z,8.70
2023-04-07T10:03:27.484Z,6.88
2023-04-07T10:05:32.719Z,6.05
2023-04-07T10:07:38.294Z,5.93
2023-04-07T10:09:43.329Z,10.48
2023-04-07T10:11:48.702Z,7.80
2023-04-07T10:13:53.944Z,8.65
2023-04-07T10:15:59.278Z,6.90
2023-04-07T10:18:08.185Z,6.00
2023-04-07T10:20:17.749Z,7.85
2023-04-07T10:22:23.468Z,6.38
2023-04-07T10:24:45.272Z,6.72
2023-04-07T10:26:54.921Z,7.40
2023-04-07T10:29:03.420Z,7.43
2023-04-07T10:31:09.255Z,8.00
2023-04-07T10:33:14.163Z,8.07
2023-04-07T10:35:22.342Z,7.75
2023-04-07T10:37:28.351Z,7.10
2023-04-07T10:39:36.120Z,7.03
2023-04-07T10:41:42.047Z,8.02
2023-04-07T10:43:47.168Z,6.13
2023-04-07T10:46:00.270Z,7.35
2023-04-07T10:48:15.802Z,8.48
2023-04-07T10:50:25.160Z,7.07
2023-04-07T10:52:30.287Z,7.53
2023-04-07T10:54:35.094Z,7.65
2023-04-07T10:57:11.262Z,6.75
2023-04-07T10:59:19.646Z,7.13
2023-04-07T11:01:24.509Z,7.70
2023-04-07T11:03:31.135Z,7.60
2023-04-07T11:05:39.102Z,7.40
2023-04-07T11:07:57.917Z,7.25
2023-04-07T11:10:13.778Z,7.28
2023-04-07T11:12:27.079Z,6.40
2023-04-07T11:14:33.054Z,6.72
2023-04-07T11:16:43.484Z,7.07
2023-04-07T11:18:49.590Z,6.90
2023-04-07T11:20:59.649Z,7.70
2023-04-07T11:23:04.383Z,6.78
2023-04-07T11:25:27.905Z,7.25
2023-04-07T11:29:38.878Z,5.80
2023-04-07T11:31:43.860Z,7.85
2023-04-07T11:33:55.674Z,7.05
2023-04-07T11:36:05.326Z,6.63
2023-04-07T11:38:10.606Z,6.80
2023-04-07T11:40:17.122Z,6.30
2023-04-07T11:42:34.785Z,6.25
2023-04-07T11:44:48.142Z,6.43
2023-04-07T11:46:56.780Z,6.88
2023-04-07T11:49:12.967Z,6.38
2023-04-07T11:51:26.026Z,5.28
2023-04-07T11:53:32.237Z,6.95
2023-04-07T11:55:37.203Z,6.50
2023-04-07T11:57:42.178Z,7.35
2023-04-07T11:59:47.091Z,6.10
2023-04-07T12:01:57.004Z,6.07
2023-04-07T12:04:05.007Z,6.03
2023-04-07T12:06:10.241Z,6.40
2023-04-07T12:08:19.819Z,6.45
2023-04-07T12:10:26.961Z,5.47
2023-04-07T12:12:33.490Z,7.10
2023-04-07T12:14:39.122Z,6.82
2023-04-07T12:16:44.303Z,6.22
2023-04-07T12:18:49.439Z,6.05
2023-04-07T12:20:54.307Z,6.97
2023-04-07T12:23:00.620Z,5.45
2023-04-07T12:25:08.951Z,5.20
2023-04-07T12:27:13.941Z,7.00
2023-04-07T12:29:20.496Z,8.00
2023-04-07T12:31:25.840Z,6.20
2023-04-07T12:33:31.060Z,6.97
2023-04-07T12:35:36.053Z,6.30
2023-04-07T12:37:41.221Z,6.43
2023-04-07T12:39:46.017Z,6.90
2023-04-07T12:41:53.766Z,7.30
2023-04-07T12:43:58.556Z,7.25
2023-04-07T12:46:03.406Z,5.53
2023-04-07T12:48:08.476Z,6.70
2023-04-07T12:50:13.604Z,6.10
2023-04-07T12:52:18.378Z,7.07
2023-04-07T12:54:23.238Z,6.05
2023-04-07T12:56:29.025Z,5.95
2023-04-07T12:58:36.897Z,6.55
2023-04-07T13:00:41.892Z,6.28
2023-04-07T13:02:46.911Z,6.13
2023-04-07T13:04:51.840Z,6.18
2023-04-07T13:06:57.034Z,5.50
2023-04-07T13:09:02.033Z,5.60
2023-04-07T13:11:07.458Z,5.57
2023-04-07T13:13:12.266Z,7.13
2023-04-07T13:15:20.165Z,5.70
2023-04-07T13:17:25.028Z,4.75
2023-04-07T13:19:29.916Z,5.65
2023-04-07T13:21:46.252Z,5.90
2023-04-07T13:23:54.170Z,5.70
2023-04-07T13:25:59.162Z,5.30
2023-04-07T13:28:04.467Z,6.13
2023-04-07T13:30:11.033Z,5.65
2023-04-07T13:32:18.701Z,5.55
2023-04-07T13:34:23.734Z,5.13
2023-04-07T13:36:30.298Z,5.20
2023-04-07T13:38:35.247Z,4.38
2023-04-07T13:40:40.048Z,4.65
2023-04-07T13:42:45.804Z,5.63
2023-04-07T13:44:51.183Z,5.18
2023-04-07T13:46:56.590Z,5.45
2023-04-07T13:49:04.182Z,5.53
2023-04-07T13:51:08.987Z,4.68
2023-04-07T13:53:13.810Z,5.65
2023-04-07T13:55:20.543Z,5.15
2023-04-07T13:57:25.566Z,5.13
2023-04-07T13:59:30.729Z,4.20
2023-04-07T14:01:35.919Z,5.15
2023-04-07T14:03:40.939Z,5.90
2023-04-07T14:05:48.416Z,4.32
2023-04-07T14:07:53.171Z,4.93
2023-04-07T14:09:58.749Z,5.07
2023-04-07T14:12:03.619Z,5.20
2023-04-07T14:14:08.966Z,5.13
2023-04-07T14:16:13.951Z,5.82
2023-04-07T14:18:18.792Z,5.15
2023-04-07T14:20:25.334Z,6.35
2023-04-07T14:22:34.055Z,6.60
2023-04-07T14:24:39.576Z,5.88
2023-04-07T14:26:46.503Z,5.00
2023-04-07T14:28:51.346Z,5.18
2023-04-07T14:30:56.299Z,5.18
2023-04-07T14:33:04.471Z,5.57
2023-04-07T14:35:11.007Z,6.20
2023-04-07T14:37:16.809Z,6.30
2023-04-07T14:39:24.530Z,5.63
2023-04-07T14:41:29.993Z,7.03
2023-04-07T14:43:34.927Z,7.18
2023-04-07T14:45:39.873Z,7.32
2023-04-07T14:47:44.774Z,8.45
2023-04-07T14:49:51.852Z,7.68
2023-04-07T14:51:58.820Z,4.88
2023-04-07T14:54:03.627Z,4.28
2023-04-07T14:56:11.258Z,4.30
2023-04-07T14:58:15.976Z,4.82
2023-04-07T15:00:20.898Z,4.63
2023-04-07T15:02:25.809Z,7.45
2023-04-07T15:04:31.091Z,6.97
2023-04-07T15:06:35.939Z,7.55
2023-04-07T15:08:40.916Z,7.15
2023-04-07T15:10:45.670Z,8.35
2023-04-07T15:12:53.084Z,9.43
2023-04-07T15:14:57.848Z,10.00
2023-04-07T15:17:02.680Z,6.68
2023-04-07T15:19:07.410Z,6.15
2023-04-07T15:21:13.045Z,5.28
2023-04-07T15:23:18.141Z,6.20
2023-04-07T15:25:23.256Z,5.80
2023-04-07T15:27:28.148Z,5.93
2023-04-07T15:29:35.595Z,5.43
2023-04-07T15:31:40.338Z,4.55
2023-04-07T15:33:46.683Z,4.95
2023-04-07T15:35:51.741Z,5.15
2023-04-07T15:37:56.798Z,5.88
2023-04-07T15:40:01.550Z,5.18
2023-04-07T15:42:09.916Z,4.18
2023-04-07T15:44:20.657Z,4.68
2023-04-07T15:46:28.053Z,5.88
2023-04-07T15:48:32.770Z,4.13
2023-04-07T15:50:37.825Z,5.40
2023-04-07T15:52:42.621Z,5.70
2023-04-07T15:54:47.368Z,4.70
2023-04-07T15:56:52.938Z,4.72
2023-04-07T15:58:57.977Z,4.78
2023-04-07T16:01:03.108Z,6.97
2023-04-07T16:03:10.750Z,5.82
2023-04-07T16:05:15.861Z,6.57
2023-04-07T16:07:20.901Z,5.38
2023-04-07T16:09:25.705Z,6.03
2023-04-07T16:11:30.646Z,4.78
2023-04-07T16:13:35.352Z,5.28
2023-04-07T16:15:41.649Z,4.85
2023-04-07T16:17:49.671Z,5.88
2023-04-07T16:19:57.174Z,4.40
2023-04-07T16:22:01.891Z,6.72
2023-04-07T16:24:06.887Z,6.72
2023-04-07T16:26:11.651Z,5.25
2023-04-07T16:28:17.224Z,5.70
2023-04-07T16:30:24.142Z,5.40
2023-04-07T16:32:29.358Z,4.72
2023-04-07T16:34:34.727Z,6.05
2023-04-07T16:36:42.292Z,5.80
2023-04-07T16:38:47.022Z,6.22
2023-04-07T16:41:03.256Z,4.47
2023-04-07T16:43:09.283Z,5.00
2023-04-07T16:45:14.577Z,4.85
2023-04-07T16:47:19.322Z,5.88
2023-04-07T16:49:24.136Z,5.65
2023-04-07T16:51:29.659Z,5.10
2023-04-07T16:53:37.249Z,5.05
2023-04-07T16:55:42.176Z,4.47
2023-04-07T16:57:46.910Z,4.68
2023-04-07T16:59:51.661Z,4.95
2023-04-07T17:01:56.932Z,5.30
2023-04-07T17:04:01.937Z,5.40
2023-04-07T17:06:07.945Z,5.20
2023-04-07T17:08:12.777Z,6.00
2023-04-07T17:10:20.481Z,5.25
2023-04-07T17:12:26.316Z,5.85
2023-04-07T17:14:31.593Z,5.43
2023-04-07T17:16:36.650Z,6.32
2023-04-07T17:18:41.551Z,7.25
2023-04-07T17:20:46.768Z,6.68
2023-04-07T17:22:51.764Z,5.88
2023-04-07T17:24:56.515Z,6.22
2023-04-07T17:27:04.042Z,7.53
2023-04-07T17:29:08.784Z,6.07
2023-04-07T17:31:15.834Z,5.78
2023-04-07T17:33:20.940Z,6.82
2023-04-07T17:35:26.159Z,7.18
2023-04-07T17:37:31.318Z,6.45
2023-04-07T17:39:36.336Z,5.00
2023-04-07T17:41:41.821Z,5.68
2023-04-07T17:43:49.571Z,5.95
2023-04-07T17:45:54.654Z,6.00
2023-04-07T17:48:01.156Z,5.80
2023-04-07T17:50:06.329Z,5.88
2023-04-07T17:52:11.362Z,6.30
2023-04-07T17:54:16.447Z,6.97
2023-04-07T17:56:21.341Z,6.32
2023-04-07T17:58:26.395Z,6.43
2023-04-07T18:00:33.919Z,5.05
2023-04-07T18:02:40.569Z,5.85
2023-04-07T18:04:46.898Z,5.55
2023-04-07T18:06:51.851Z,7.50
2023-04-07T18:08:56.742Z,5.72
2023-04-07T18:11:01.833Z,6.35
2023-04-07T18:13:07.182Z,7.05
2023-04-07T18:15:13.225Z,7.13
2023-04-07T18:17:20.691Z,9.02
2023-04-07T18:19:25.802Z,6.80
2023-04-07T18:21:31.433Z,5.78
2023-04-07T18:23:36.379Z,5.32
2023-04-07T18:25:41.328Z,8.77
2023-04-07T18:27:46.590Z,7.32
2023-04-07T18:29:51.389Z,6.47
2023-04-07T18:31:56.103Z,7.40
2023-04-07T18:34:03.952Z,5.38
2023-04-07T18:36:10.759Z,8.82
2023-04-07T18:38:16.148Z,10.32
2023-04-07T18:40:20.963Z,19.08
2023-04-07T18:42:25.913Z,8.35
2023-04-07T18:44:30.830Z,12.00
2023-04-07T18:46:35.909Z,7.18
2023-04-07T18:48:41.101Z,6.22
2023-04-07T18:50:52.577Z,6.32
2023-04-07T18:52:57.283Z,7.60
2023-04-07T18:55:02.077Z,10.02
2023-04-07T18:57:06.930Z,7.65
2023-04-07T18:59:11.899Z,7.75
2023-04-07T19:01:16.855Z,7.65
2023-04-07T19:03:21.989Z,10.38
2023-04-07T19:05:26.837Z,8.77
2023-04-07T19:07:34.210Z,9.32
2023-04-07T19:09:40.070Z,11.77
2023-04-07T19:11:44.884Z,11.77
2023-04-07T19:13:49.920Z,7.35
2023-04-07T19:15:55.441Z,6.63
2023-04-07T19:18:00.229Z,7.30
2023-04-07T19:20:05.060Z,7.07
2023-04-07T19:22:09.838Z,6.13
2023-04-07T19:24:17.318Z,7.00
2023-04-07T19:26:22.177Z,5.68
2023-04-07T19:28:28.112Z,7.03
2023-04-07T19:30:32.963Z,7.07
2023-04-07T19:32:37.983Z,7.97
2023-04-07T19:34:42.822Z,8.50
2023-04-07T19:36:47.597Z,6.45
2023-04-07T19:38:52.422Z,5.43
2023-04-07T19:40:59.753Z,7.15
2023-04-07T19:43:04.579Z,7.38
2023-04-07T19:45:10.727Z,7.38
2023-04-07T19:47:15.428Z,7.15
2023-04-07T19:49:20.218Z,7.55
2023-04-07T19:51:25.064Z,7.20
2023-04-07T19:53:29.868Z,7.03
2023-04-07T19:55:34.687Z,5.95
2023-04-07T19:57:43.343Z,6.68
2023-04-07T19:59:48.728Z,5.60
2023-04-07T20:01:54.834Z,6.18
2023-04-07T20:03:59.818Z,7.00
2023-04-07T20:06:04.922Z,7.22
2023-04-07T20:08:10.735Z,9.30
2023-04-07T20:10:15.728Z,6.72
2023-04-07T20:12:20.466Z,6.63
2023-04-07T20:14:27.905Z,7.22
2023-04-07T20:16:34.659Z,7.22
2023-04-07T20:18:39.429Z,6.68
2023-04-07T20:20:44.168Z,7.18
2023-04-07T20:22:48.890Z,6.53
2023-04-07T20:24:53.604Z,6.25
2023-04-07T20:26:58.617Z,8.00
2023-04-07T20:29:03.357Z,7.88
2023-04-07T20:31:11.250Z,6.88
2023-04-07T20:33:16.397Z,7.00
2023-04-07T20:35:21.295Z,6.90
2023-04-07T20:37:26.464Z,6.30
2023-04-07T20:39:31.337Z,5.80
2023-04-07T20:41:36.575Z,6.90
2023-04-07T20:43:41.380Z,6.13
2023-04-07T20:45:47.604Z,5.78
2023-04-07T20:47:55.224Z,8.38
2023-04-07T20:50:00.607Z,7.57
2023-04-07T20:52:05.908Z,6.43
2023-04-07T20:54:10.680Z,6.95
2023-04-07T20:56:15.604Z,6.65
2023-04-07T20:58:20.562Z,7.43
2023-04-07T21:00:26.209Z,10.90
2023-04-07T21:02:31.063Z,9.52
2023-04-07T21:04:38.782Z,7.53
2023-04-07T21:06:44.170Z,8.38
2023-04-07T21:08:49.302Z,8.80
2023-04-07T21:10:54.771Z,7.40
2023-04-07T21:12:59.508Z,6.43
2023-04-07T21:15:04.229Z,7.00
2023-04-07T21:17:08.978Z,5.75
2023-04-07T21:19:13.889Z,6.47
2023-04-07T21:21:21.604Z,8.15
2023-04-07T21:23:26.409Z,5.88
2023-04-07T21:25:31.379Z,8.30
2023-04-07T21:27:36.366Z,7.78
2023-04-07T21:29:42.635Z,6.45
2023-04-07T21:31:47.456Z,6.72
2023-04-07T21:33:53.702Z,7.35
2023-04-07T21:35:58.537Z,6.30
2023-04-07T21:38:06.043Z,6.35
2023-04-07T21:40:12.130Z,5.95
2023-04-07T21:42:17.137Z,6.78
2023-04-07T21:44:22.799Z,5.32
2023-04-07T21:46:27.823Z,6.13
2023-04-07T21:48:34.857Z,6.95
2023-04-07T21:50:40.520Z,7.93
2023-04-07T21:52:45.531Z,5.90
2023-04-07T21:54:52.927Z,7.00
2023-04-07T21:56:57.811Z,8.25
2023-04-07T21:59:03.992Z,6.28
2023-04-07T22:01:08.805Z,7.13
2023-04-07T22:03:13.883Z,6.63
2023-04-07T22:05:19.063Z,6.35
2023-04-07T22:07:24.016Z,5.72
2023-04-07T22:09:29.397Z,12.88
2023-04-07T22:11:36.863Z,6.63
2023-04-07T22:13:41.655Z,6.28
2023-04-07T22:15:46.581Z,6.05
2023-04-07T22:17:51.680Z,6.32
2023-04-07T22:19:56.742Z,6.57
2023-04-07T22:22:01.662Z,7.07
2023-04-07T22:24:06.820Z,7.38
2023-04-07T22:26:11.684Z,6.05
2023-04-07T22:28:19.162Z,6.05
2023-04-07T22:30:24.767Z,7.85
2023-04-07T22:32:29.764Z,7.18
2023-04-07T22:34:34.583Z,6.68
2023-04-07T22:36:39.396Z,6.38
2023-04-07T22:38:44.188Z,6.00
2023-04-07T22:40:49.046Z,6.53
2023-04-07T22:42:53.807Z,5.50
2023-04-07T22:45:01.197Z,5.30
2023-04-07T22:47:06.205Z,7.07
2023-04-07T22:49:11.176Z,4.90
2023-04-07T22:51:15.978Z,5.47
2023-04-07T22:53:20.767Z,8.52
2023-04-07T22:55:25.671Z,6.38
2023-04-07T22:57:30.648Z,7.35
2023-04-07T22:59:35.724Z,6.22
2023-04-07T23:01:43.295Z,5.82
2023-04-07T23:03:48.260Z,6.10
2023-04-07T23:05:53.054Z,6.45
2023-04-07T23:07:57.842Z,6.57
2023-04-07T23:10:03.100Z,6.10
2023-04-07T23:12:07.994Z,5.97
2023-04-07T23:14:13.185Z,6.93
2023-04-07T23:16:18.530Z,5.13
2023-04-07T23:18:26.062Z,6.35
2023-04-07T23:20:30.789Z,5.80
2023-04-07T23:22:36.151Z,9.05
2023-04-07T23:24:41.822Z,8.35
2023-04-07T23:26:46.952Z,7.22
2023-04-07T23:28:52.164Z,7.03
2023-04-07T23:30:57.291Z,7.30
2023-04-07T23:33:02.108Z,7.32
2023-04-07T23:35:10.258Z,6.85
2023-04-07T23:37:15.641Z,6.95
2023-04-07T23:39:20.596Z,7.45
2023-04-07T23:41:25.486Z,7.18
2023-04-07T23:43:30.314Z,6.25
2023-04-07T23:45:35.081Z,6.60
2023-04-07T23:47:40.105Z,7.60
2023-04-07T23:49:44.935Z,6.82
2023-04-07T23:51:52.302Z,6.38
2023-04-07T23:53:57.088Z,7.00
2023-04-07T23:56:01.947Z,9.40
2023-04-07T23:58:06.686Z,8.02
